sensor_id;sensor_type;location;lat;lon;timestamp;temperature;humidity
11577;DHT22;5844;51.496;6.788;2023-05-21T00:02:10;14.10;1.00
11577;DHT22;5844;51.496;6.788;2023-05-21T00:04:39;14.00;1.00
11577;DHT22;5844;51.496;6.788;2023-05-21T00:07:08;14.00;1.00
11577;DHT22;5844;51.496;6.788;2023-05-21T00:09:35;14.00;1.00
11577;DHT22;5844;51.496;6.788;2023-05-21T00:12:06;14.00;1.00
11577;DHT22;5844;51.496;6.788;2023-05-21T00:14:32;14.00;1.00
11577;DHT22;5844;51.496;6.788;2023-05-21T00:16:58;14.00;1.00
11577;DHT22;5844;51.496;6.788;2023-05-21T00:19:24;14.00;1.00
11577;DHT22;5844;51.496;6.788;2023-05-21T00:21:50;14.00;1.00
11577;DHT22;5844;51.496;6.788;2023-05-21T00:24:15;13.90;1.00
11577;DHT22;5844;51.496;6.788;2023-05-21T00:26:41;13.90;1.00
11577;DHT22;5844;51.496;6.788;2023-05-21T00:29:06;13.80;1.00
11577;DHT22;5844;51.496;6.788;2023-05-21T00:31:32;13.80;1.00
11577;DHT22;5844;51.496;6.788;2023-05-21T00:33:58;13.80;1.00
11577;DHT22;5844;51.496;6.788;2023-05-21T00:36:23;13.70;1.00
11577;DHT22;5844;51.496;6.788;2023-05-21T00:38:50;13.70;1.00
11577;DHT22;5844;51.496;6.788;2023-05-21T00:41:16;13.60;1.00
11577;DHT22;5844;51.496;6.788;2023-05-21T00:43:42;13.60;1.00
11577;DHT22;5844;51.496;6.788;2023-05-21T00:46:18;13.60;1.00
11577;DHT22;5844;51.496;6.788;2023-05-21T00:48:45;13.60;1.00
11577;DHT22;5844;51.496;6.788;2023-05-21T00:51:15;13.50;1.00
11577;DHT22;5844;51.496;6.788;2023-05-21T00:53:41;13.50;1.00
11577;DHT22;5844;51.496;6.788;2023-05-21T00:56:07;13.50;1.00
11577;DHT22;5844;51.496;6.788;2023-05-21T00:58:34;13.50;1.00
11577;DHT22;5844;51.496;6.788;2023-05-21T01:01:00;13.50;1.00
11577;DHT22;5844;51.496;6.788;2023-05-21T01:03:29;13.40;1.00
11577;DHT22;5844;51.496;6.788;2023-05-21T01:05:55;13.50;1.00
11577;DHT22;5844;51.496;6.788;2023-05-21T01:08:25;13.50;1.00
11577;DHT22;5844;51.496;6.788;2023-05-21T01:10:52;13.50;1.00
11577;DHT22;5844;51.496;6.788;2023-05-21T01:13:18;13.50;1.00
11577;DHT22;5844;51.496;6.788;2023-05-21T01:15:45;13.50;1.00
11577;DHT22;5844;51.496;6.788;2023-05-21T01:18:12;13.50;1.00
11577;DHT22;5844;51.496;6.788;2023-05-21T01:20:39;13.50;1.00
11577;DHT22;5844;51.496;6.788;2023-05-21T01:23:07;13.50;1.00
11577;DHT22;5844;51.496;6.788;2023-05-21T01:25:33;13.50;1.00
11577;DHT22;5844;51.496;6.788;2023-05-21T01:27:59;13.50;1.00
11577;DHT22;5844;51.496;6.788;2023-05-21T01:30:25;13.50;1.00
11577;DHT22;5844;51.496;6.788;2023-05-21T01:33:02;13.50;1.00
11577;DHT22;5844;51.496;6.788;2023-05-21T01:35:38;13.50;1.00
11577;DHT22;5844;51.496;6.788;2023-05-21T01:38:25;13.40;1.00
11577;DHT22;5844;51.496;6.788;2023-05-21T01:41:02;13.40;1.00
11577;DHT22;5844;51.496;6.788;2023-05-21T01:43:32;13.30;1.00
11577;DHT22;5844;51.496;6.788;2023-05-21T01:45:59;13.40;1.00
11577;DHT22;5844;51.496;6.788;2023-05-21T01:48:29;13.40;1.00
11577;DHT22;5844;51.496;6.788;2023-05-21T01:50:59;13.30;1.00
11577;DHT22;5844;51.496;6.788;2023-05-21T01:53:25;13.30;1.00
11577;DHT22;5844;51.496;6.788;2023-05-21T01:55:51;13.30;1.00
11577;DHT22;5844;51.496;6.788;2023-05-21T01:58:19;13.30;1.00
11577;DHT22;5844;51.496;6.788;2023-05-21T02:00:45;13.30;1.00
11577;DHT22;5844;51.496;6.788;2023-05-21T02:03:12;13.20;1.00
11577;DHT22;5844;51.496;6.788;2023-05-21T02:05:41;13.20;1.00
11577;DHT22;5844;51.496;6.788;2023-05-21T02:08:07;13.20;1.00
11577;DHT22;5844;51.496;6.788;2023-05-21T02:10:34;13.20;1.00
11577;DHT22;5844;51.496;6.788;2023-05-21T02:12:59;13.10;1.00
11577;DHT22;5844;51.496;6.788;2023-05-21T02:15:25;13.20;1.00
11577;DHT22;5844;51.496;6.788;2023-05-21T02:17:51;13.10;1.00
11577;DHT22;5844;51.496;6.788;2023-05-21T02:20:17;13.10;1.00
11577;DHT22;5844;51.496;6.788;2023-05-21T02:22:44;13.10;1.00
11577;DHT22;5844;51.496;6.788;2023-05-21T02:25:12;13.20;1.00
11577;DHT22;5844;51.496;6.788;2023-05-21T02:27:39;13.20;1.00
11577;DHT22;5844;51.496;6.788;2023-05-21T02:30:09;13.20;1.00
11577;DHT22;5844;51.496;6.788;2023-05-21T02:32:35;13.20;1.00
11577;DHT22;5844;51.496;6.788;2023-05-21T02:35:02;13.20;1.00
11577;DHT22;5844;51.496;6.788;2023-05-21T02:37:29;13.20;1.00
11577;DHT22;5844;51.496;6.788;2023-05-21T02:39:58;13.20;1.00
11577;DHT22;5844;51.496;6.788;2023-05-21T02:42:24;13.20;1.00
11577;DHT22;5844;51.496;6.788;2023-05-21T02:44:50;13.20;1.00
11577;DHT22;5844;51.496;6.788;2023-05-21T02:47:19;13.20;1.00
11577;DHT22;5844;51.496;6.788;2023-05-21T02:49:45;13.20;1.00
11577;DHT22;5844;51.496;6.788;2023-05-21T02:52:11;13.10;1.00
11577;DHT22;5844;51.496;6.788;2023-05-21T02:54:37;13.20;1.00
11577;DHT22;5844;51.496;6.788;2023-05-21T02:57:03;13.20;1.00
11577;DHT22;5844;51.496;6.788;2023-05-21T02:59:28;13.20;1.00
11577;DHT22;5844;51.496;6.788;2023-05-21T03:01:54;13.10;1.00
11577;DHT22;5844;51.496;6.788;2023-05-21T03:04:20;13.10;1.00
11577;DHT22;5844;51.496;6.788;2023-05-21T03:06:49;13.00;1.00
11577;DHT22;5844;51.496;6.788;2023-05-21T03:09:20;13.00;1.00
11577;DHT22;5844;51.496;6.788;2023-05-21T03:11:46;13.00;1.00
11577;DHT22;5844;51.496;6.788;2023-05-21T03:14:12;13.00;1.00
11577;DHT22;5844;51.496;6.788;2023-05-21T03:16:37;13.00;1.00
11577;DHT22;5844;51.496;6.788;2023-05-21T03:19:06;13.00;1.00
11577;DHT22;5844;51.496;6.788;2023-05-21T03:21:32;13.00;1.00
11577;DHT22;5844;51.496;6.788;2023-05-21T03:23:58;13.00;1.00
11577;DHT22;5844;51.496;6.788;2023-05-21T03:26:25;12.90;1.00
11577;DHT22;5844;51.496;6.788;2023-05-21T03:28:54;12.90;1.00
11577;DHT22;5844;51.496;6.788;2023-05-21T03:31:20;12.90;1.00
11577;DHT22;5844;51.496;6.788;2023-05-21T03:33:46;12.80;1.00
11577;DHT22;5844;51.496;6.788;2023-05-21T03:36:12;12.80;1.00
11577;DHT22;5844;51.496;6.788;2023-05-21T03:38:37;12.70;1.00
11577;DHT22;5844;51.496;6.788;2023-05-21T03:41:03;12.70;1.00
11577;DHT22;5844;51.496;6.788;2023-05-21T03:43:29;12.70;1.00
11577;DHT22;5844;51.496;6.788;2023-05-21T03:45:54;12.70;1.00
11577;DHT22;5844;51.496;6.788;2023-05-21T03:48:20;12.70;1.00
11577;DHT22;5844;51.496;6.788;2023-05-21T03:50:46;12.70;1.00
11577;DHT22;5844;51.496;6.788;2023-05-21T03:53:12;12.70;1.00
11577;DHT22;5844;51.496;6.788;2023-05-21T03:55:38;12.70;1.00
11577;DHT22;5844;51.496;6.788;2023-05-21T03:58:04;12.80;1.00
11577;DHT22;5844;51.496;6.788;2023-05-21T04:00:29;12.80;1.00
11577;DHT22;5844;51.496;6.788;2023-05-21T04:02:57;12.80;1.00
11577;DHT22;5844;51.496;6.788;2023-05-21T04:05:23;12.90;1.00
11577;DHT22;5844;51.496;6.788;2023-05-21T04:07:48;12.90;1.00
11577;DHT22;5844;51.496;6.788;2023-05-21T04:10:14;12.90;1.00
11577;DHT22;5844;51.496;6.788;2023-05-21T04:12:40;12.90;1.00
11577;DHT22;5844;51.496;6.788;2023-05-21T04:15:06;13.00;1.00
11577;DHT22;5844;51.496;6.788;2023-05-21T04:17:32;13.00;1.00
11577;DHT22;5844;51.496;6.788;2023-05-21T04:19:59;13.00;1.00
11577;DHT22;5844;51.496;6.788;2023-05-21T04:22:24;13.10;1.00
11577;DHT22;5844;51.496;6.788;2023-05-21T04:24:52;13.10;1.00
11577;DHT22;5844;51.496;6.788;2023-05-21T04:27:20;13.10;1.00
11577;DHT22;5844;51.496;6.788;2023-05-21T04:29:48;13.10;1.00
11577;DHT22;5844;51.496;6.788;2023-05-21T04:32:14;13.20;1.00
11577;DHT22;5844;51.496;6.788;2023-05-21T04:34:42;13.20;1.00
11577;DHT22;5844;51.496;6.788;2023-05-21T04:37:08;13.30;1.00
11577;DHT22;5844;51.496;6.788;2023-05-21T04:39:34;13.30;1.00
11577;DHT22;5844;51.496;6.788;2023-05-21T04:42:00;13.40;1.00
11577;DHT22;5844;51.496;6.788;2023-05-21T04:44:27;13.40;1.00
11577;DHT22;5844;51.496;6.788;2023-05-21T04:46:53;13.40;1.00
11577;DHT22;5844;51.496;6.788;2023-05-21T04:49:19;13.50;1.00
11577;DHT22;5844;51.496;6.788;2023-05-21T04:51:45;13.60;1.00
11577;DHT22;5844;51.496;6.788;2023-05-21T04:54:11;13.60;1.00
11577;DHT22;5844;51.496;6.788;2023-05-21T04:56:37;13.70;1.00
11577;DHT22;5844;51.496;6.788;2023-05-21T04:59:03;13.70;1.00
11577;DHT22;5844;51.496;6.788;2023-05-21T05:01:29;13.80;1.00
11577;DHT22;5844;51.496;6.788;2023-05-21T05:03:56;13.80;1.00
11577;DHT22;5844;51.496;6.788;2023-05-21T05:06:22;13.90;1.00
11577;DHT22;5844;51.496;6.788;2023-05-21T05:08:50;13.90;1.00
11577;DHT22;5844;51.496;6.788;2023-05-21T05:11:15;14.00;1.00
11577;DHT22;5844;51.496;6.788;2023-05-21T05:13:41;14.10;1.00
11577;DHT22;5844;51.496;6.788;2023-05-21T05:16:07;14.10;1.00
11577;DHT22;5844;51.496;6.788;2023-05-21T05:18:33;14.10;1.00
11577;DHT22;5844;51.496;6.788;2023-05-21T05:21:00;14.20;1.00
11577;DHT22;5844;51.496;6.788;2023-05-21T05:23:26;14.30;1.00
11577;DHT22;5844;51.496;6.788;2023-05-21T05:25:51;14.30;1.00
11577;DHT22;5844;51.496;6.788;2023-05-21T05:28:17;14.30;1.00
11577;DHT22;5844;51.496;6.788;2023-05-21T05:30:43;14.40;1.00
11577;DHT22;5844;51.496;6.788;2023-05-21T05:33:09;14.50;1.00
11577;DHT22;5844;51.496;6.788;2023-05-21T05:35:36;14.60;1.00
11577;DHT22;5844;51.496;6.788;2023-05-21T05:38:02;14.70;1.00
11577;DHT22;5844;51.496;6.788;2023-05-21T05:40:27;14.70;1.00
11577;DHT22;5844;51.496;6.788;2023-05-21T05:42:53;14.70;1.00
11577;DHT22;5844;51.496;6.788;2023-05-21T05:45:19;14.90;1.00
11577;DHT22;5844;51.496;6.788;2023-05-21T05:47:45;14.80;1.00
11577;DHT22;5844;51.496;6.788;2023-05-21T05:53:32;15.00;1.00
11577;DHT22;5844;51.496;6.788;2023-05-21T05:55:58;15.10;1.00
11577;DHT22;5844;51.496;6.788;2023-05-21T05:58:24;15.30;1.00
11577;DHT22;5844;51.496;6.788;2023-05-21T06:00:50;15.30;1.00
11577;DHT22;5844;51.496;6.788;2023-05-21T06:03:16;15.40;1.00
11577;DHT22;5844;51.496;6.788;2023-05-21T06:05:42;15.50;1.00
11577;DHT22;5844;51.496;6.788;2023-05-21T06:08:08;15.70;1.00
11577;DHT22;5844;51.496;6.788;2023-05-21T06:10:33;15.80;1.00
11577;DHT22;5844;51.496;6.788;2023-05-21T06:12:59;15.90;1.00
11577;DHT22;5844;51.496;6.788;2023-05-21T06:15:24;15.80;1.00
11577;DHT22;5844;51.496;6.788;2023-05-21T06:17:51;15.90;1.00
11577;DHT22;5844;51.496;6.788;2023-05-21T06:20:18;15.90;1.00
11577;DHT22;5844;51.496;6.788;2023-05-21T06:22:44;16.00;1.00
11577;DHT22;5844;51.496;6.788;2023-05-21T06:25:09;16.00;1.00
11577;DHT22;5844;51.496;6.788;2023-05-21T06:27:36;16.10;1.00
11577;DHT22;5844;51.496;6.788;2023-05-21T06:30:02;16.00;1.00
11577;DHT22;5844;51.496;6.788;2023-05-21T06:32:29;16.10;1.00
11577;DHT22;5844;51.496;6.788;2023-05-21T06:34:54;16.10;1.00
11577;DHT22;5844;51.496;6.788;2023-05-21T06:37:20;16.10;1.00
11577;DHT22;5844;51.496;6.788;2023-05-21T06:39:46;16.00;1.00
11577;DHT22;5844;51.496;6.788;2023-05-21T06:42:12;16.00;1.00
11577;DHT22;5844;51.496;6.788;2023-05-21T06:44:37;16.10;1.00
11577;DHT22;5844;51.496;6.788;2023-05-21T06:47:03;16.20;1.00
11577;DHT22;5844;51.496;6.788;2023-05-21T06:49:29;16.20;1.00
11577;DHT22;5844;51.496;6.788;2023-05-21T06:51:54;16.40;1.00
11577;DHT22;5844;51.496;6.788;2023-05-21T06:54:20;16.50;1.00
11577;DHT22;5844;51.496;6.788;2023-05-21T06:56:46;16.70;1.00
11577;DHT22;5844;51.496;6.788;2023-05-21T06:59:11;16.80;1.00
11577;DHT22;5844;51.496;6.788;2023-05-21T07:01:37;16.90;1.00
11577;DHT22;5844;51.496;6.788;2023-05-21T07:04:07;17.00;1.00
11577;DHT22;5844;51.496;6.788;2023-05-21T07:06:32;17.10;1.00
11577;DHT22;5844;51.496;6.788;2023-05-21T07:08:59;17.30;1.00
11577;DHT22;5844;51.496;6.788;2023-05-21T07:11:24;17.40;1.00
11577;DHT22;5844;51.496;6.788;2023-05-21T07:13:53;17.50;1.00
11577;DHT22;5844;51.496;6.788;2023-05-21T07:16:20;17.50;1.00
11577;DHT22;5844;51.496;6.788;2023-05-21T07:18:45;17.70;1.00
11577;DHT22;5844;51.496;6.788;2023-05-21T07:21:11;17.80;1.00
11577;DHT22;5844;51.496;6.788;2023-05-21T07:23:36;17.90;1.00
11577;DHT22;5844;51.496;6.788;2023-05-21T07:26:02;17.90;1.00
11577;DHT22;5844;51.496;6.788;2023-05-21T07:28:28;18.00;1.00
11577;DHT22;5844;51.496;6.788;2023-05-21T07:30:53;18.00;1.00
11577;DHT22;5844;51.496;6.788;2023-05-21T07:33:19;18.20;1.00
11577;DHT22;5844;51.496;6.788;2023-05-21T07:35:45;18.50;1.00
11577;DHT22;5844;51.496;6.788;2023-05-21T07:38:11;18.80;1.00
11577;DHT22;5844;51.496;6.788;2023-05-21T07:40:37;19.00;1.00
11577;DHT22;5844;51.496;6.788;2023-05-21T07:43:03;19.30;1.00
11577;DHT22;5844;51.496;6.788;2023-05-21T07:45:28;19.50;1.00
11577;DHT22;5844;51.496;6.788;2023-05-21T07:47:54;19.50;1.00
11577;DHT22;5844;51.496;6.788;2023-05-21T07:50:19;19.60;1.00
11577;DHT22;5844;51.496;6.788;2023-05-21T07:52:45;19.80;1.00
11577;DHT22;5844;51.496;6.788;2023-05-21T07:55:11;19.80;1.00
11577;DHT22;5844;51.496;6.788;2023-05-21T07:57:36;20.00;1.00
11577;DHT22;5844;51.496;6.788;2023-05-21T08:00:02;20.40;1.00
11577;DHT22;5844;51.496;6.788;2023-05-21T08:02:31;20.60;1.00
11577;DHT22;5844;51.496;6.788;2023-05-21T08:04:56;20.80;1.00
11577;DHT22;5844;51.496;6.788;2023-05-21T08:07:23;20.90;1.00
11577;DHT22;5844;51.496;6.788;2023-05-21T08:09:48;21.10;1.00
11577;DHT22;5844;51.496;6.788;2023-05-21T08:12:14;21.20;1.00
11577;DHT22;5844;51.496;6.788;2023-05-21T08:14:40;21.20;1.00
11577;DHT22;5844;51.496;6.788;2023-05-21T08:17:08;21.30;1.00
11577;DHT22;5844;51.496;6.788;2023-05-21T08:19:35;21.40;1.00
11577;DHT22;5844;51.496;6.788;2023-05-21T08:22:01;21.30;1.00
11577;DHT22;5844;51.496;6.788;2023-05-21T08:24:27;21.30;1.00
11577;DHT22;5844;51.496;6.788;2023-05-21T08:26:53;21.30;1.00
11577;DHT22;5844;51.496;6.788;2023-05-21T08:29:19;21.40;1.00
11577;DHT22;5844;51.496;6.788;2023-05-21T08:31:44;21.40;1.00
11577;DHT22;5844;51.496;6.788;2023-05-21T08:34:10;21.30;1.00
11577;DHT22;5844;51.496;6.788;2023-05-21T08:36:36;21.30;1.00
11577;DHT22;5844;51.496;6.788;2023-05-21T08:39:02;21.40;1.00
11577;DHT22;5844;51.496;6.788;2023-05-21T08:41:30;21.40;1.00
11577;DHT22;5844;51.496;6.788;2023-05-21T08:43:55;21.40;1.00
11577;DHT22;5844;51.496;6.788;2023-05-21T08:46:24;21.50;1.00
11577;DHT22;5844;51.496;6.788;2023-05-21T08:48:52;21.40;1.00
11577;DHT22;5844;51.496;6.788;2023-05-21T08:51:20;21.20;1.00
11577;DHT22;5844;51.496;6.788;2023-05-21T08:53:46;21.40;1.00
11577;DHT22;5844;51.496;6.788;2023-05-21T08:56:15;21.50;1.00
11577;DHT22;5844;51.496;6.788;2023-05-21T08:58:44;21.60;1.00
11577;DHT22;5844;51.496;6.788;2023-05-21T09:01:11;21.70;1.00
11577;DHT22;5844;51.496;6.788;2023-05-21T09:03:39;21.80;1.00
11577;DHT22;5844;51.496;6.788;2023-05-21T09:06:09;22.10;1.00
11577;DHT22;5844;51.496;6.788;2023-05-21T09:08:38;22.50;1.00
11577;DHT22;5844;51.496;6.788;2023-05-21T09:11:06;22.50;1.00
11577;DHT22;5844;51.496;6.788;2023-05-21T09:13:32;22.70;1.00
11577;DHT22;5844;51.496;6.788;2023-05-21T09:15:58;23.00;1.00
11577;DHT22;5844;51.496;6.788;2023-05-21T09:18:24;23.20;1.00
11577;DHT22;5844;51.496;6.788;2023-05-21T09:20:52;23.30;1.00
11577;DHT22;5844;51.496;6.788;2023-05-21T09:23:19;23.30;1.00
11577;DHT22;5844;51.496;6.788;2023-05-21T09:25:46;23.40;1.00
11577;DHT22;5844;51.496;6.788;2023-05-21T09:28:15;23.60;1.00
11577;DHT22;5844;51.496;6.788;2023-05-21T09:30:49;23.70;1.00
11577;DHT22;5844;51.496;6.788;2023-05-21T09:33:26;23.90;1.00
11577;DHT22;5844;51.496;6.788;2023-05-21T09:35:54;24.00;1.00
11577;DHT22;5844;51.496;6.788;2023-05-21T09:38:23;24.10;1.00
11577;DHT22;5844;51.496;6.788;2023-05-21T09:40:50;24.10;1.00
11577;DHT22;5844;51.496;6.788;2023-05-21T09:43:16;24.10;1.00
11577;DHT22;5844;51.496;6.788;2023-05-21T09:45:53;24.00;1.00
11577;DHT22;5844;51.496;6.788;2023-05-21T09:48:38;24.00;1.00
11577;DHT22;5844;51.496;6.788;2023-05-21T09:51:14;24.10;1.00
11577;DHT22;5844;51.496;6.788;2023-05-21T09:53:54;24.00;1.00
11577;DHT22;5844;51.496;6.788;2023-05-21T09:56:31;23.90;1.00
11577;DHT22;5844;51.496;6.788;2023-05-21T09:58:58;23.90;1.00
11577;DHT22;5844;51.496;6.788;2023-05-21T10:01:25;23.80;1.00
11577;DHT22;5844;51.496;6.788;2023-05-21T10:03:59;23.90;1.00
11577;DHT22;5844;51.496;6.788;2023-05-21T10:06:28;24.00;1.00
11577;DHT22;5844;51.496;6.788;2023-05-21T10:08:56;24.30;1.00
11577;DHT22;5844;51.496;6.788;2023-05-21T10:11:26;24.50;1.00
11577;DHT22;5844;51.496;6.788;2023-05-21T10:14:14;25.00;1.00
11577;DHT22;5844;51.496;6.788;2023-05-21T10:16:41;25.50;1.00
11577;DHT22;5844;51.496;6.788;2023-05-21T10:19:08;26.30;1.00
11577;DHT22;5844;51.496;6.788;2023-05-21T10:21:35;26.70;1.00
11577;DHT22;5844;51.496;6.788;2023-05-21T10:24:01;27.10;1.00
11577;DHT22;5844;51.496;6.788;2023-05-21T10:26:29;27.50;1.00
11577;DHT22;5844;51.496;6.788;2023-05-21T10:28:55;27.80;1.00
11577;DHT22;5844;51.496;6.788;2023-05-21T10:31:22;28.10;1.00
11577;DHT22;5844;51.496;6.788;2023-05-21T10:33:48;28.00;1.00
11577;DHT22;5844;51.496;6.788;2023-05-21T10:36:19;28.10;1.00
11577;DHT22;5844;51.496;6.788;2023-05-21T10:38:46;28.40;1.00
11577;DHT22;5844;51.496;6.788;2023-05-21T10:41:13;28.10;1.00
11577;DHT22;5844;51.496;6.788;2023-05-21T10:46:46;28.60;1.00
11577;DHT22;5844;51.496;6.788;2023-05-21T11:00:19;28.70;1.00
11577;DHT22;5844;51.496;6.788;2023-05-21T11:02:47;28.60;1.00
11577;DHT22;5844;51.496;6.788;2023-05-21T11:05:13;28.00;1.00
11577;DHT22;5844;51.496;6.788;2023-05-21T11:07:57;27.80;1.00
11577;DHT22;5844;51.496;6.788;2023-05-21T11:10:37;28.20;1.00
11577;DHT22;5844;51.496;6.788;2023-05-21T11:13:12;28.40;1.00
11577;DHT22;5844;51.496;6.788;2023-05-21T11:26:19;26.90;1.00
11577;DHT22;5844;51.496;6.788;2023-05-21T11:31:30;26.80;1.00
11577;DHT22;5844;51.496;6.788;2023-05-21T11:36:47;27.00;1.00
11577;DHT22;5844;51.496;6.788;2023-05-21T11:39:15;27.30;1.00
11577;DHT22;5844;51.496;6.788;2023-05-21T11:41:58;27.60;1.00
11577;DHT22;5844;51.496;6.788;2023-05-21T11:44:44;27.80;1.00
11577;DHT22;5844;51.496;6.788;2023-05-21T11:47:15;28.70;1.00
11577;DHT22;5844;51.496;6.788;2023-05-21T11:49:41;29.40;1.00
11577;DHT22;5844;51.496;6.788;2023-05-21T11:52:08;30.50;1.00
11577;DHT22;5844;51.496;6.788;2023-05-21T11:54:45;31.20;1.00
11577;DHT22;5844;51.496;6.788;2023-05-21T11:57:12;31.20;1.00
11577;DHT22;5844;51.496;6.788;2023-05-21T11:59:46;31.20;1.00
11577;DHT22;5844;51.496;6.788;2023-05-21T12:02:20;30.80;1.00
11577;DHT22;5844;51.496;6.788;2023-05-21T12:04:49;30.60;1.00
11577;DHT22;5844;51.496;6.788;2023-05-21T12:07:16;30.60;1.00
11577;DHT22;5844;51.496;6.788;2023-05-21T12:09:47;31.20;1.00
11577;DHT22;5844;51.496;6.788;2023-05-21T12:12:18;31.90;1.00
11577;DHT22;5844;51.496;6.788;2023-05-21T12:14:45;32.50;1.00
11577;DHT22;5844;51.496;6.788;2023-05-21T12:17:14;33.20;1.00
11577;DHT22;5844;51.496;6.788;2023-05-21T12:19:40;33.00;1.00
11577;DHT22;5844;51.496;6.788;2023-05-21T12:22:06;33.40;1.00
11577;DHT22;5844;51.496;6.788;2023-05-21T12:24:33;33.80;1.00
11577;DHT22;5844;51.496;6.788;2023-05-21T12:27:00;34.10;1.00
11577;DHT22;5844;51.496;6.788;2023-05-21T12:29:30;34.10;1.00
11577;DHT22;5844;51.496;6.788;2023-05-21T12:32:01;34.30;1.00
11577;DHT22;5844;51.496;6.788;2023-05-21T12:34:40;35.10;1.00
11577;DHT22;5844;51.496;6.788;2023-05-21T12:37:30;35.10;1.00
11577;DHT22;5844;51.496;6.788;2023-05-21T12:40:00;36.00;1.00
11577;DHT22;5844;51.496;6.788;2023-05-21T12:42:30;36.00;1.00
11577;DHT22;5844;51.496;6.788;2023-05-21T12:44:59;35.50;1.00
11577;DHT22;5844;51.496;6.788;2023-05-21T12:47:26;35.60;1.00
11577;DHT22;5844;51.496;6.788;2023-05-21T12:49:56;35.80;1.00
11577;DHT22;5844;51.496;6.788;2023-05-21T12:52:22;36.50;1.00
11577;DHT22;5844;51.496;6.788;2023-05-21T12:54:50;36.70;1.00
11577;DHT22;5844;51.496;6.788;2023-05-21T12:57:21;37.20;1.00
11577;DHT22;5844;51.496;6.788;2023-05-21T12:59:54;37.00;1.00
11577;DHT22;5844;51.496;6.788;2023-05-21T13:05:09;37.50;1.00
11577;DHT22;5844;51.496;6.788;2023-05-21T13:07:37;37.60;1.00
11577;DHT22;5844;51.496;6.788;2023-05-21T13:10:03;37.20;1.00
11577;DHT22;5844;51.496;6.788;2023-05-21T13:12:30;36.90;1.00
11577;DHT22;5844;51.496;6.788;2023-05-21T13:14:58;36.50;1.00
11577;DHT22;5844;51.496;6.788;2023-05-21T13:17:25;36.00;1.00
11577;DHT22;5844;51.496;6.788;2023-05-21T13:20:10;36.10;1.00
11577;DHT22;5844;51.496;6.788;2023-05-21T13:22:39;36.30;1.00
11577;DHT22;5844;51.496;6.788;2023-05-21T13:25:08;37.20;1.00
11577;DHT22;5844;51.496;6.788;2023-05-21T13:27:34;38.00;1.00
11577;DHT22;5844;51.496;6.788;2023-05-21T13:30:00;37.20;1.00
11577;DHT22;5844;51.496;6.788;2023-05-21T13:32:26;37.20;1.00
11577;DHT22;5844;51.496;6.788;2023-05-21T13:34:52;37.10;1.00
11577;DHT22;5844;51.496;6.788;2023-05-21T13:37:17;37.40;1.00
11577;DHT22;5844;51.496;6.788;2023-05-21T13:39:45;37.10;1.00
11577;DHT22;5844;51.496;6.788;2023-05-21T13:42:11;37.30;1.00
11577;DHT22;5844;51.496;6.788;2023-05-21T13:44:37;37.10;1.00
11577;DHT22;5844;51.496;6.788;2023-05-21T13:47:03;36.80;1.00
11577;DHT22;5844;51.496;6.788;2023-05-21T13:49:29;36.50;1.00
11577;DHT22;5844;51.496;6.788;2023-05-21T13:51:54;36.20;1.00
11577;DHT22;5844;51.496;6.788;2023-05-21T13:54:20;35.80;1.00
11577;DHT22;5844;51.496;6.788;2023-05-21T13:56:46;34.90;1.00
11577;DHT22;5844;51.496;6.788;2023-05-21T13:59:12;34.60;1.00
11577;DHT22;5844;51.496;6.788;2023-05-21T14:01:37;35.20;1.00
11577;DHT22;5844;51.496;6.788;2023-05-21T14:04:03;35.30;1.00
11577;DHT22;5844;51.496;6.788;2023-05-21T14:06:33;35.70;1.00
11577;DHT22;5844;51.496;6.788;2023-05-21T14:08:59;36.50;1.00
11577;DHT22;5844;51.496;6.788;2023-05-21T14:11:26;36.80;1.00
11577;DHT22;5844;51.496;6.788;2023-05-21T14:13:52;36.80;1.00
11577;DHT22;5844;51.496;6.788;2023-05-21T14:16:19;36.70;1.00
11577;DHT22;5844;51.496;6.788;2023-05-21T14:18:44;36.50;1.00
11577;DHT22;5844;51.496;6.788;2023-05-21T14:21:10;36.00;1.00
11577;DHT22;5844;51.496;6.788;2023-05-21T14:23:35;36.00;1.00
11577;DHT22;5844;51.496;6.788;2023-05-21T14:26:01;36.10;1.00
11577;DHT22;5844;51.496;6.788;2023-05-21T14:28:27;36.20;1.00
11577;DHT22;5844;51.496;6.788;2023-05-21T14:30:52;36.10;1.00
11577;DHT22;5844;51.496;6.788;2023-05-21T14:33:18;36.70;1.00
11577;DHT22;5844;51.496;6.788;2023-05-21T14:35:44;37.10;1.00
11577;DHT22;5844;51.496;6.788;2023-05-21T14:38:10;37.40;1.00
11577;DHT22;5844;51.496;6.788;2023-05-21T14:40:36;37.50;1.00
11577;DHT22;5844;51.496;6.788;2023-05-21T14:43:01;38.00;1.00
11577;DHT22;5844;51.496;6.788;2023-05-21T14:45:27;38.00;1.00
11577;DHT22;5844;51.496;6.788;2023-05-21T14:47:53;38.30;1.00
11577;DHT22;5844;51.496;6.788;2023-05-21T14:50:19;38.80;1.00
11577;DHT22;5844;51.496;6.788;2023-05-21T14:52:45;38.80;1.00
11577;DHT22;5844;51.496;6.788;2023-05-21T14:55:10;39.10;1.00
11577;DHT22;5844;51.496;6.788;2023-05-21T14:57:37;39.30;1.00
11577;DHT22;5844;51.496;6.788;2023-05-21T15:00:03;38.90;1.00
11577;DHT22;5844;51.496;6.788;2023-05-21T15:02:30;38.60;1.00
11577;DHT22;5844;51.496;6.788;2023-05-21T15:04:55;38.50;1.00
11577;DHT22;5844;51.496;6.788;2023-05-21T15:07:21;38.70;1.00
11577;DHT22;5844;51.496;6.788;2023-05-21T15:09:46;38.60;1.00
11577;DHT22;5844;51.496;6.788;2023-05-21T15:12:12;38.00;1.00
11577;DHT22;5844;51.496;6.788;2023-05-21T15:14:39;37.70;1.00
11577;DHT22;5844;51.496;6.788;2023-05-21T15:17:05;37.50;1.00
11577;DHT22;5844;51.496;6.788;2023-05-21T15:19:30;37.60;1.00
11577;DHT22;5844;51.496;6.788;2023-05-21T15:21:56;38.10;1.00
11577;DHT22;5844;51.496;6.788;2023-05-21T15:24:22;38.10;1.00
11577;DHT22;5844;51.496;6.788;2023-05-21T15:26:47;38.00;1.00
11577;DHT22;5844;51.496;6.788;2023-05-21T15:29:14;38.20;1.00
11577;DHT22;5844;51.496;6.788;2023-05-21T15:31:39;38.10;1.00
11577;DHT22;5844;51.496;6.788;2023-05-21T15:34:05;37.60;1.00
11577;DHT22;5844;51.496;6.788;2023-05-21T15:36:30;37.70;1.00
11577;DHT22;5844;51.496;6.788;2023-05-21T15:38:56;38.00;1.00
11577;DHT22;5844;51.496;6.788;2023-05-21T15:41:22;37.80;1.00
11577;DHT22;5844;51.496;6.788;2023-05-21T15:43:47;37.70;1.00
11577;DHT22;5844;51.496;6.788;2023-05-21T15:46:13;37.60;1.00
11577;DHT22;5844;51.496;6.788;2023-05-21T15:48:38;37.50;1.00
11577;DHT22;5844;51.496;6.788;2023-05-21T15:51:04;37.30;1.00
11577;DHT22;5844;51.496;6.788;2023-05-21T15:53:29;37.00;1.00
11577;DHT22;5844;51.496;6.788;2023-05-21T15:55:55;36.70;1.00
11577;DHT22;5844;51.496;6.788;2023-05-21T15:58:21;36.10;1.00
11577;DHT22;5844;51.496;6.788;2023-05-21T16:00:47;35.80;1.00
11577;DHT22;5844;51.496;6.788;2023-05-21T16:03:12;35.60;1.00
11577;DHT22;5844;51.496;6.788;2023-05-21T16:05:38;35.00;1.00
11577;DHT22;5844;51.496;6.788;2023-05-21T16:08:04;34.40;1.00
11577;DHT22;5844;51.496;6.788;2023-05-21T16:10:29;33.50;1.00
11577;DHT22;5844;51.496;6.788;2023-05-21T16:12:55;32.50;1.00
11577;DHT22;5844;51.496;6.788;2023-05-21T16:15:20;31.80;1.00
11577;DHT22;5844;51.496;6.788;2023-05-21T16:17:46;31.20;1.00
11577;DHT22;5844;51.496;6.788;2023-05-21T16:20:12;30.80;1.00
11577;DHT22;5844;51.496;6.788;2023-05-21T16:22:38;30.60;1.00
11577;DHT22;5844;51.496;6.788;2023-05-21T16:25:04;30.50;1.00
11577;DHT22;5844;51.496;6.788;2023-05-21T16:27:30;30.40;1.00
11577;DHT22;5844;51.496;6.788;2023-05-21T16:29:56;29.90;1.00
11577;DHT22;5844;51.496;6.788;2023-05-21T16:32:22;29.50;1.00
11577;DHT22;5844;51.496;6.788;2023-05-21T16:34:48;29.40;1.00
11577;DHT22;5844;51.496;6.788;2023-05-21T16:37:13;29.30;1.00
11577;DHT22;5844;51.496;6.788;2023-05-21T16:39:39;29.60;1.00